sensor_id;sensor_type;location;lat;lon;timestamp;pressure;altitude;pressure_sealevel;temperature;humidity
66681;BME280;53575;51.366;12.350;2022-09-13T00:01:43;99956.78;;;14.20;94.76
66681;BME280;53575;51.366;12.350;2022-09-13T00:04:09;99964.00;;;14.12;95.56
66681;BME280;53575;51.366;12.350;2022-09-13T00:06:34;99954.44;;;14.09;95.19
66681;BME280;53575;51.366;12.350;2022-09-13T00:09:00;99956.00;;;14.17;94.84
66681;BME280;53575;51.366;12.350;2022-09-13T00:11:28;99945.72;;;14.07;95.34
66681;BME280;53575;51.366;12.350;2022-09-13T00:13:54;99944.78;;;14.10;95.76
66681;BME280;53575;51.366;12.350;2022-09-13T00:16:21;99939.44;;;14.13;95.12
66681;BME280;53575;51.366;12.350;2022-09-13T00:18:47;99926.38;;;14.10;95.81
66681;BME280;53575;51.366;12.350;2022-09-13T00:21:15;99927.31;;;14.07;95.41
66681;BME280;53575;51.366;12.350;2022-09-13T00:23:45;99930.06;;;14.04;94.95
66681;BME280;53575;51.366;12.350;2022-09-13T00:26:13;99920.28;;;14.08;95.06
66681;BME280;53575;51.366;12.350;2022-09-13T00:28:39;99921.47;;;13.98;94.97
66681;BME280;53575;51.366;12.350;2022-09-13T00:31:06;99917.13;;;13.97;95.29
66681;BME280;53575;51.366;12.350;2022-09-13T00:33:33;99917.16;;;13.95;95.51
66681;BME280;53575;51.366;12.350;2022-09-13T00:36:03;99918.84;;;13.98;96.14
66681;BME280;53575;51.366;12.350;2022-09-13T00:38:29;99911.09;;;13.92;96.73
66681;BME280;53575;51.366;12.350;2022-09-13T00:40:54;99911.88;;;13.97;96.68
66681;BME280;53575;51.366;12.350;2022-09-13T00:43:50;99903.56;;;13.79;97.33
66681;BME280;53575;51.366;12.350;2022-09-13T00:48:49;99901.13;;;13.72;98.28
66681;BME280;53575;51.366;12.350;2022-09-13T00:51:15;99901.19;;;13.70;98.12
66681;BME280;53575;51.366;12.350;2022-09-13T00:53:45;99898.31;;;13.79;97.92
66681;BME280;53575;51.366;12.350;2022-09-13T00:56:20;99892.78;;;13.88;97.28
66681;BME280;53575;51.366;12.350;2022-09-13T00:58:51;99893.84;;;13.83;97.21
66681;BME280;53575;51.366;12.350;2022-09-13T01:01:20;99896.09;;;13.97;96.13
66681;BME280;53575;51.366;12.350;2022-09-13T01:03:48;99883.06;;;13.92;95.77
66681;BME280;53575;51.366;12.350;2022-09-13T01:06:24;99890.06;;;13.93;95.98
66681;BME280;53575;51.366;12.350;2022-09-13T01:08:54;99885.59;;;13.97;96.73
66681;BME280;53575;51.366;12.350;2022-09-13T01:14:27;99888.09;;;14.01;95.56
66681;BME280;53575;51.366;12.350;2022-09-13T01:16:53;99880.50;;;13.90;95.88
66681;BME280;53575;51.366;12.350;2022-09-13T01:19:19;99883.78;;;13.99;95.88
66681;BME280;53575;51.366;12.350;2022-09-13T01:35:13;99869.41;;;13.79;96.40
66681;BME280;53575;51.366;12.350;2022-09-13T01:40:35;99885.13;;;13.81;96.78
66681;BME280;53575;51.366;12.350;2022-09-13T01:46:05;99865.41;;;13.66;98.13
66681;BME280;53575;51.366;12.350;2022-09-13T01:51:33;99865.41;;;13.66;98.20
66681;BME280;53575;51.366;12.350;2022-09-13T01:54:16;99870.75;;;13.61;98.32
66681;BME280;53575;51.366;12.350;2022-09-13T01:57:03;99864.56;;;13.64;98.20
66681;BME280;53575;51.366;12.350;2022-09-13T01:59:41;99864.69;;;13.59;98.89
66681;BME280;53575;51.366;12.350;2022-09-13T02:02:15;99854.38;;;13.52;99.64
66681;BME280;53575;51.366;12.350;2022-09-13T02:04:47;99848.84;;;13.62;99.41
66681;BME280;53575;51.366;12.350;2022-09-13T02:07:28;99850.56;;;13.63;99.54
66681;BME280;53575;51.366;12.350;2022-09-13T02:09:59;99854.00;;;13.65;98.51
66681;BME280;53575;51.366;12.350;2022-09-13T02:12:28;99839.09;;;13.68;99.30
66681;BME280;53575;51.366;12.350;2022-09-13T02:15:23;99845.19;;;13.68;98.91
66681;BME280;53575;51.366;12.350;2022-09-13T02:18:21;99832.91;;;13.70;98.60
66681;BME280;53575;51.366;12.350;2022-09-13T02:20:50;99838.44;;;13.59;99.74
66681;BME280;53575;51.366;12.350;2022-09-13T02:23:23;99836.63;;;13.61;98.66
66681;BME280;53575;51.366;12.350;2022-09-13T02:25:52;99835.59;;;13.67;98.39
66681;BME280;53575;51.366;12.350;2022-09-13T02:28:25;99824.41;;;13.60;99.36
66681;BME280;53575;51.366;12.350;2022-09-13T02:30:53;99825.31;;;13.59;98.99
66681;BME280;53575;51.366;12.350;2022-09-13T02:33:26;99821.13;;;13.52;100.00
66681;BME280;53575;51.366;12.350;2022-09-13T02:36:09;99813.13;;;13.57;100.00
66681;BME280;53575;51.366;12.350;2022-09-13T02:38:43;99809.97;;;13.43;100.00
66681;BME280;53575;51.366;12.350;2022-09-13T02:41:26;99802.53;;;13.60;99.93
66681;BME280;53575;51.366;12.350;2022-09-13T02:44:06;99798.41;;;13.51;99.88
66681;BME280;53575;51.366;12.350;2022-09-13T02:47:01;99783.66;;;13.46;100.00
66681;BME280;53575;51.366;12.350;2022-09-13T02:49:33;99782.88;;;13.42;100.00
66681;BME280;53575;51.366;12.350;2022-09-13T02:54:53;99788.19;;;13.40;100.00
66681;BME280;53575;51.366;12.350;2022-09-13T02:57:37;99791.78;;;13.36;100.00
66681;BME280;53575;51.366;12.350;2022-09-13T03:00:06;99802.22;;;13.38;100.00
66681;BME280;53575;51.366;12.350;2022-09-13T03:02:32;99799.69;;;13.35;100.00
66681;BME280;53575;51.366;12.350;2022-09-13T03:05:00;99798.59;;;13.44;100.00
66681;BME280;53575;51.366;12.350;2022-09-13T03:07:26;99795.00;;;13.46;100.00
66681;BME280;53575;51.366;12.350;2022-09-13T03:09:54;99792.25;;;13.52;100.00
66681;BME280;53575;51.366;12.350;2022-09-13T03:17:53;99795.47;;;13.29;100.00
66681;BME280;53575;51.366;12.350;2022-09-13T03:20:35;99790.13;;;13.32;100.00
66681;BME280;53575;51.366;12.350;2022-09-13T03:26:11;99779.59;;;13.34;100.00
66681;BME280;53575;51.366;12.350;2022-09-13T03:29:05;99778.16;;;13.21;100.00
66681;BME280;53575;51.366;12.350;2022-09-13T03:32:23;99778.25;;;13.16;100.00
66681;BME280;53575;51.366;12.350;2022-09-13T03:34:33;99793.22;;;13.12;100.00
66681;BME280;53575;51.366;12.350;2022-09-13T03:39:47;99775.13;;;13.37;100.00
66681;BME280;53575;51.366;12.350;2022-09-13T03:42:32;99779.59;;;13.34;100.00
66681;BME280;53575;51.366;12.350;2022-09-13T03:45:01;99768.53;;;13.21;100.00
66681;BME280;53575;51.366;12.350;2022-09-13T03:47:30;99774.59;;;13.25;100.00
66681;BME280;53575;51.366;12.350;2022-09-13T03:49:58;99766.75;;;13.23;100.00
66681;BME280;53575;51.366;12.350;2022-09-13T03:52:24;99770.06;;;13.30;100.00
66681;BME280;53575;51.366;12.350;2022-09-13T03:54:51;99773.34;;;13.38;100.00
66681;BME280;53575;51.366;12.350;2022-09-13T03:57:19;99775.00;;;13.42;100.00
66681;BME280;53575;51.366;12.350;2022-09-13T03:59:55;99761.22;;;13.34;100.00
66681;BME280;53575;51.366;12.350;2022-09-13T04:02:22;99767.97;;;13.43;100.00
66681;BME280;53575;51.366;12.350;2022-09-13T04:04:49;99760.16;;;13.41;100.00
66681;BME280;53575;51.366;12.350;2022-09-13T04:07:20;99756.84;;;13.34;100.00
66681;BME280;53575;51.366;12.350;2022-09-13T04:09:46;99755.16;;;13.32;100.00
66681;BME280;53575;51.366;12.350;2022-09-13T04:12:12;99761.50;;;13.22;100.00
66681;BME280;53575;51.366;12.350;2022-09-13T04:14:39;99761.06;;;13.40;100.00
66681;BME280;53575;51.366;12.350;2022-09-13T04:17:04;99762.72;;;13.44;100.00
66681;BME280;53575;51.366;12.350;2022-09-13T04:19:33;99767.91;;;13.46;100.00
66681;BME280;53575;51.366;12.350;2022-09-13T04:21:59;99763.78;;;13.37;100.00
66681;BME280;53575;51.366;12.350;2022-09-13T04:24:26;99772.31;;;13.45;100.00
66681;BME280;53575;51.366;12.350;2022-09-13T04:26:53;99761.16;;;13.37;100.00
66681;BME280;53575;51.366;12.350;2022-09-13T04:29:19;99771.31;;;13.49;100.00
66681;BME280;53575;51.366;12.350;2022-09-13T04:31:46;99770.25;;;13.56;100.00
66681;BME280;53575;51.366;12.350;2022-09-13T04:34:11;99764.28;;;13.50;100.00
66681;BME280;53575;51.366;12.350;2022-09-13T04:36:38;99760.00;;;13.47;100.00
66681;BME280;53575;51.366;12.350;2022-09-13T04:39:04;99758.25;;;13.46;100.00
66681;BME280;53575;51.366;12.350;2022-09-13T04:41:30;99763.44;;;13.49;100.00
66681;BME280;53575;51.366;12.350;2022-09-13T04:44:01;99760.59;;;13.58;100.00
66681;BME280;53575;51.366;12.350;2022-09-13T04:46:28;99763.03;;;13.64;99.58
66681;BME280;53575;51.366;12.350;2022-09-13T04:48:55;99752.44;;;13.68;99.03
66681;BME280;53575;51.366;12.350;2022-09-13T04:51:20;99753.09;;;13.76;99.86
66681;BME280;53575;51.366;12.350;2022-09-13T04:53:51;99751.28;;;13.78;99.17
66681;BME280;53575;51.366;12.350;2022-09-13T04:56:18;99752.31;;;13.72;99.52
66681;BME280;53575;51.366;12.350;2022-09-13T04:58:44;99744.22;;;13.80;99.96
66681;BME280;53575;51.366;12.350;2022-09-13T05:01:10;99742.84;;;13.96;97.88
66681;BME280;53575;51.366;12.350;2022-09-13T05:03:36;99739.16;;;14.03;97.22
66681;BME280;53575;51.366;12.350;2022-09-13T05:06:07;99745.03;;;14.11;96.88
66681;BME280;53575;51.366;12.350;2022-09-13T05:08:34;99737.38;;;14.04;97.63
66681;BME280;53575;51.366;12.350;2022-09-13T05:11:00;99741.78;;;14.03;98.18
66681;BME280;53575;51.366;12.350;2022-09-13T05:13:26;99746.00;;;14.09;97.78
66681;BME280;53575;51.366;12.350;2022-09-13T05:15:59;99743.53;;;14.04;98.36
66681;BME280;53575;51.366;12.350;2022-09-13T05:18:29;99737.44;;;14.02;98.46
66681;BME280;53575;51.366;12.350;2022-09-13T05:20:58;99733.97;;;14.00;98.67
66681;BME280;53575;51.366;12.350;2022-09-13T05:23:25;99726.94;;;14.02;99.22
66681;BME280;53575;51.366;12.350;2022-09-13T05:25:54;99730.00;;;14.17;97.32
66681;BME280;53575;51.366;12.350;2022-09-13T05:28:21;99729.03;;;14.19;95.81
66681;BME280;53575;51.366;12.350;2022-09-13T05:31:20;99727.16;;;14.24;96.43
66681;BME280;53575;51.366;12.350;2022-09-13T05:33:50;99727.88;;;14.29;95.70
66681;BME280;53575;51.366;12.350;2022-09-13T05:36:16;99728.88;;;14.25;96.45
66681;BME280;53575;51.366;12.350;2022-09-13T05:38:42;99735.03;;;14.24;96.67
66681;BME280;53575;51.366;12.350;2022-09-13T05:41:08;99737.44;;;14.60;94.38
66681;BME280;53575;51.366;12.350;2022-09-13T05:43:34;99738.97;;;14.67;93.39
66681;BME280;53575;51.366;12.350;2022-09-13T05:48:26;99741.22;;;14.79;92.97
66681;BME280;53575;51.366;12.350;2022-09-13T05:50:51;99739.94;;;14.91;92.62
66681;BME280;53575;51.366;12.350;2022-09-13T05:53:16;99733.53;;;15.00;91.80
66681;BME280;53575;51.366;12.350;2022-09-13T05:55:41;99726.44;;;15.02;92.22
66681;BME280;53575;51.366;12.350;2022-09-13T05:58:07;99728.88;;;15.08;91.08
66681;BME280;53575;51.366;12.350;2022-09-13T06:00:32;99733.66;;;15.22;90.76
66681;BME280;53575;51.366;12.350;2022-09-13T06:02:58;99724.91;;;15.21;90.55
66681;BME280;53575;51.366;12.350;2022-09-13T06:05:24;99714.47;;;15.43;89.49
66681;BME280;53575;51.366;12.350;2022-09-13T06:07:49;99717.00;;;15.46;89.34
66681;BME280;53575;51.366;12.350;2022-09-13T06:10:15;99714.59;;;15.40;89.86
66681;BME280;53575;51.366;12.350;2022-09-13T06:12:40;99719.97;;;15.60;88.49
66681;BME280;53575;51.366;12.350;2022-09-13T06:15:06;99716.56;;;15.58;88.01
66681;BME280;53575;51.366;12.350;2022-09-13T06:17:33;99719.94;;;15.62;88.21
66681;BME280;53575;51.366;12.350;2022-09-13T06:19:58;99734.59;;;15.46;89.34
66681;BME280;53575;51.366;12.350;2022-09-13T06:22:24;99744.09;;;15.50;89.03
66681;BME280;53575;51.366;12.350;2022-09-13T06:24:49;99743.81;;;15.57;89.10
66681;BME280;53575;51.366;12.350;2022-09-13T06:27:14;99745.47;;;15.60;88.96
66681;BME280;53575;51.366;12.350;2022-09-13T06:29:40;99744.50;;;15.63;89.25
66681;BME280;53575;51.366;12.350;2022-09-13T06:32:05;99753.13;;;15.43;90.82
66681;BME280;53575;51.366;12.350;2022-09-13T06:34:31;99763.25;;;15.28;91.92
66681;BME280;53575;51.366;12.350;2022-09-13T06:36:56;99758.69;;;15.33;92.19
66681;BME280;53575;51.366;12.350;2022-09-13T06:39:22;99764.41;;;15.46;91.41
66681;BME280;53575;51.366;12.350;2022-09-13T06:41:47;99749.75;;;15.38;92.99
66681;BME280;53575;51.366;12.350;2022-09-13T06:44:13;99748.81;;;15.40;92.38
66681;BME280;53575;51.366;12.350;2022-09-13T06:46:38;99757.56;;;15.41;92.83
66681;BME280;53575;51.366;12.350;2022-09-13T06:49:05;99747.03;;;15.41;93.80
66681;BME280;53575;51.366;12.350;2022-09-13T06:51:32;99744.22;;;15.45;94.57
66681;BME280;53575;51.366;12.350;2022-09-13T06:53:58;99728.66;;;15.39;96.08
66681;BME280;53575;51.366;12.350;2022-09-13T06:56:25;99730.97;;;15.23;97.52
66681;BME280;53575;51.366;12.350;2022-09-13T06:58:54;99735.53;;;15.18;98.73
66681;BME280;53575;51.366;12.350;2022-09-13T07:01:21;99729.03;;;15.28;98.92
66681;BME280;53575;51.366;12.350;2022-09-13T07:03:50;99726.47;;;15.27;99.75
66681;BME280;53575;51.366;12.350;2022-09-13T07:06:19;99734.81;;;15.13;100.00
66681;BME280;53575;51.366;12.350;2022-09-13T07:08:46;99744.59;;;15.09;100.00
66681;BME280;53575;51.366;12.350;2022-09-13T07:11:13;99736.34;;;15.20;100.00
66681;BME280;53575;51.366;12.350;2022-09-13T07:13:39;99736.66;;;15.36;100.00
66681;BME280;53575;51.366;12.350;2022-09-13T07:16:07;99737.53;;;15.36;100.00
66681;BME280;53575;51.366;12.350;2022-09-13T07:18:33;99732.31;;;15.35;100.00
66681;BME280;53575;51.366;12.350;2022-09-13T07:21:07;99732.31;;;15.35;100.00
66681;BME280;53575;51.366;12.350;2022-09-13T07:23:34;99730.81;;;15.28;100.00
66681;BME280;53575;51.366;12.350;2022-09-13T07:26:00;99731.78;;;15.25;100.00
66681;BME280;53575;51.366;12.350;2022-09-13T07:28:36;99726.19;;;15.09;100.00
66681;BME280;53575;51.366;12.350;2022-09-13T07:31:09;99722.84;;;15.29;100.00
66681;BME280;53575;51.366;12.350;2022-09-13T07:33:36;99719.91;;;15.39;100.00
66681;BME280;53575;51.366;12.350;2022-09-13T07:38:35;99730.19;;;15.46;100.00
66681;BME280;53575;51.366;12.350;2022-09-13T07:41:01;99728.88;;;15.58;100.00
66681;BME280;53575;51.366;12.350;2022-09-13T07:43:29;99728.63;;;15.66;100.00
66681;BME280;53575;51.366;12.350;2022-09-13T07:46:02;99721.41;;;15.71;100.00
66681;BME280;53575;51.366;12.350;2022-09-13T07:48:31;99704.94;;;15.89;99.53
66681;BME280;53575;51.366;12.350;2022-09-13T07:51:02;99721.25;;;15.99;99.50
66681;BME280;53575;51.366;12.350;2022-09-13T07:53:28;99726.66;;;16.18;99.06
66681;BME280;53575;51.366;12.350;2022-09-13T07:56:00;99731.41;;;16.31;96.87
66681;BME280;53575;51.366;12.350;2022-09-13T07:58:26;99729.25;;;16.19;97.72
66681;BME280;53575;51.366;12.350;2022-09-13T08:00:51;99726.31;;;16.27;98.66
66681;BME280;53575;51.366;12.350;2022-09-13T08:03:17;99712.84;;;16.35;99.09
66681;BME280;53575;51.366;12.350;2022-09-13T08:05:42;99715.06;;;16.45;98.12
66681;BME280;53575;51.366;12.350;2022-09-13T08:08:07;99712.84;;;16.56;97.41
66681;BME280;53575;51.366;12.350;2022-09-13T08:10:33;99712.59;;;16.63;97.02
66681;BME280;53575;51.366;12.350;2022-09-13T08:12:59;99717.38;;;16.75;96.36
66681;BME280;53575;51.366;12.350;2022-09-13T08:15:25;99716.19;;;16.84;96.34
66681;BME280;53575;51.366;12.350;2022-09-13T08:17:50;99721.78;;;16.96;96.22
66681;BME280;53575;51.366;12.350;2022-09-13T08:20:16;99722.59;;;17.19;94.88
66681;BME280;53575;51.366;12.350;2022-09-13T08:22:42;99727.44;;;17.29;94.31
66681;BME280;53575;51.366;12.350;2022-09-13T08:25:07;99731.97;;;17.46;91.65
66681;BME280;53575;51.366;12.350;2022-09-13T08:27:33;99724.78;;;17.29;92.85
66681;BME280;53575;51.366;12.350;2022-09-13T08:29:58;99729.44;;;17.43;91.88
66681;BME280;53575;51.366;12.350;2022-09-13T08:32:24;99719.59;;;17.67;90.46
66681;BME280;53575;51.366;12.350;2022-09-13T08:34:49;99714.03;;;17.94;87.72
66681;BME280;53575;51.366;12.350;2022-09-13T08:37:15;99719.88;;;18.00;88.83
66681;BME280;53575;51.366;12.350;2022-09-13T08:39:40;99717.44;;;17.96;88.93
66681;BME280;53575;51.366;12.350;2022-09-13T08:45:12;99702.78;;;18.26;88.73
66681;BME280;53575;51.366;12.350;2022-09-13T08:47:54;99709.38;;;18.37;87.04
66681;BME280;53575;51.366;12.350;2022-09-13T08:50:33;99704.66;;;18.43;86.41
66681;BME280;53575;51.366;12.350;2022-09-13T08:55:46;99706.63;;;18.38;87.27
66681;BME280;53575;51.366;12.350;2022-09-13T09:00:48;99713.91;;;18.52;85.75
66681;BME280;53575;51.366;12.350;2022-09-13T09:03:40;99705.38;;;18.64;84.53
66681;BME280;53575;51.366;12.350;2022-09-13T09:06:15;99703.31;;;18.71;84.91
66681;BME280;53575;51.366;12.350;2022-09-13T09:11:45;99697.88;;;18.74;85.41
66681;BME280;53575;51.366;12.350;2022-09-13T09:14:19;99701.31;;;18.76;84.35
66681;BME280;53575;51.366;12.350;2022-09-13T09:17:15;99696.78;;;18.95;82.62
66681;BME280;53575;51.366;12.350;2022-09-13T09:19:45;99697.59;;;18.97;82.46
66681;BME280;53575;51.366;12.350;2022-09-13T09:22:16;99696.56;;;19.00;81.87
66681;BME280;53575;51.366;12.350;2022-09-13T09:24:45;99696.88;;;19.11;81.67
66681;BME280;53575;51.366;12.350;2022-09-13T09:27:17;99700.91;;;19.18;81.60
66681;BME280;53575;51.366;12.350;2022-09-13T09:29:44;99693.22;;;19.31;79.62
66681;BME280;53575;51.366;12.350;2022-09-13T09:34:46;99697.56;;;19.32;79.37
66681;BME280;53575;51.366;12.350;2022-09-13T09:37:22;99693.19;;;19.48;78.13
66681;BME280;53575;51.366;12.350;2022-09-13T09:39:51;99686.47;;;19.59;77.70
66681;BME280;53575;51.366;12.350;2022-09-13T09:42:21;99682.88;;;19.60;78.29
66681;BME280;53575;51.366;12.350;2022-09-13T09:44:55;99689.88;;;19.61;76.30
66681;BME280;53575;51.366;12.350;2022-09-13T09:47:24;99688.22;;;19.76;75.39
66681;BME280;53575;51.366;12.350;2022-09-13T09:49:58;99687.06;;;19.97;73.28
66681;BME280;53575;51.366;12.350;2022-09-13T09:52:42;99682.47;;;20.16;73.54
66681;BME280;53575;51.366;12.350;2022-09-13T09:55:14;99681.69;;;20.30;73.07
66681;BME280;53575;51.366;12.350;2022-09-13T09:57:58;99677.50;;;20.42;70.95
66681;BME280;53575;51.366;12.350;2022-09-13T10:00:26;99676.72;;;20.56;69.78
66681;BME280;53575;51.366;12.350;2022-09-13T10:02:57;99666.69;;;20.45;69.22
66681;BME280;53575;51.366;12.350;2022-09-13T10:05:24;99672.75;;;20.47;70.53
66681;BME280;53575;51.366;12.350;2022-09-13T10:08:26;99670.97;;;20.48;68.68
66681;BME280;53575;51.366;12.350;2022-09-13T10:10:56;99664.28;;;20.56;67.76
66681;BME280;53575;51.366;12.350;2022-09-13T10:13:23;99669.00;;;20.67;66.73
66681;BME280;53575;51.366;12.350;2022-09-13T10:16:25;99667.59;;;20.76;65.58
66681;BME280;53575;51.366;12.350;2022-09-13T10:18:50;99659.09;;;20.85;63.80
66681;BME280;53575;51.366;12.350;2022-09-13T10:23:41;99654.91;;;21.11;62.81
66681;BME280;53575;51.366;12.350;2022-09-13T10:26:13;99654.44;;;21.18;61.96
66681;BME280;53575;51.366;12.350;2022-09-13T10:28:59;99652.69;;;21.17;61.68
66681;BME280;53575;51.366;12.350;2022-09-13T10:31:33;99655.28;;;21.19;60.68
66681;BME280;53575;51.366;12.350;2022-09-13T10:37:13;99645.78;;;21.15;61.28
66681;BME280;53575;51.366;12.350;2022-09-13T10:40:18;99641.44;;;21.14;61.27
66681;BME280;53575;51.366;12.350;2022-09-13T10:42:53;99637.44;;;21.07;61.55
66681;BME280;53575;51.366;12.350;2022-09-13T10:45:23;99649.78;;;21.22;61.79
66681;BME280;53575;51.366;12.350;2022-09-13T10:47:51;99641.47;;;21.42;61.55
66681;BME280;53575;51.366;12.350;2022-09-13T10:50:29;99636.91;;;21.59;61.63
66681;BME280;53575;51.366;12.350;2022-09-13T10:52:59;99634.72;;;21.65;60.72
66681;BME280;53575;51.366;12.350;2022-09-13T10:55:27;99644.22;;;21.55;60.07
66681;BME280;53575;51.366;12.350;2022-09-13T11:00:42;99644.19;;;21.27;61.66
66681;BME280;53575;51.366;12.350;2022-09-13T11:06:12;99639.84;;;21.40;61.20
66681;BME280;53575;51.366;12.350;2022-09-13T11:08:55;99641.00;;;21.50;61.00
66681;BME280;53575;51.366;12.350;2022-09-13T11:29:49;99613.81;;;22.69;58.08
66681;BME280;53575;51.366;12.350;2022-09-13T11:45:56;99586.22;;;22.70;58.25
66681;BME280;53575;51.366;12.350;2022-09-13T11:48:53;99581.00;;;22.56;59.32
66681;BME280;53575;51.366;12.350;2022-09-13T11:51:36;99581.25;;;22.38;60.25
66681;BME280;53575;51.366;12.350;2022-09-13T11:56:48;99581.25;;;22.38;59.43
66681;BME280;53575;51.366;12.350;2022-09-13T11:59:36;99578.53;;;22.66;58.68
66681;BME280;53575;51.366;12.350;2022-09-13T12:02:29;99571.78;;;23.00;57.28
66681;BME280;53575;51.366;12.350;2022-09-13T12:07:38;99569.09;;;24.00;54.59
66681;BME280;53575;51.366;12.350;2022-09-13T12:10:20;99563.88;;;24.34;53.81
66681;BME280;53575;51.366;12.350;2022-09-13T12:12:48;99568.03;;;24.14;54.35
66681;BME280;53575;51.366;12.350;2022-09-13T12:18:01;99569.41;;;23.96;55.24
66681;BME280;53575;51.366;12.350;2022-09-13T12:20:37;99561.75;;;23.91;56.02
66681;BME280;53575;51.366;12.350;2022-09-13T12:23:10;99557.44;;;24.01;56.41
66681;BME280;53575;51.366;12.350;2022-09-13T12:25:49;99560.31;;;23.98;55.66
66681;BME280;53575;51.366;12.350;2022-09-13T12:28:53;99567.84;;;23.80;53.67
66681;BME280;53575;51.366;12.350;2022-09-13T12:31:24;99569.31;;;23.48;52.45
66681;BME280;53575;51.366;12.350;2022-09-13T12:33:50;99568.19;;;23.14;52.90
66681;BME280;53575;51.366;12.350;2022-09-13T12:42:29;99567.59;;;22.83;54.49
66681;BME280;53575;51.366;12.350;2022-09-13T12:47:51;99563.97;;;22.71;54.71
66681;BME280;53575;51.366;12.350;2022-09-13T13:01:29;99550.53;;;22.73;55.25
66681;BME280;53575;51.366;12.350;2022-09-13T13:04:01;99550.66;;;22.84;54.59
66681;BME280;53575;51.366;12.350;2022-09-13T13:06:32;99545.34;;;22.97;54.57
66681;BME280;53575;51.366;12.350;2022-09-13T13:09:23;99552.09;;;23.02;54.15
66681;BME280;53575;51.366;12.350;2022-09-13T13:11:53;99552.94;;;23.03;54.28
66681;BME280;53575;51.366;12.350;2022-09-13T13:14:43;99549.59;;;23.12;53.89
66681;BME280;53575;51.366;12.350;2022-09-13T13:17:44;99548.66;;;23.13;53.82
66681;BME280;53575;51.366;12.350;2022-09-13T13:23:15;99532.22;;;23.32;53.43
66681;BME280;53575;51.366;12.350;2022-09-13T13:31:08;99521.28;;;23.97;51.97
66681;BME280;53575;51.366;12.350;2022-09-13T13:33:48;99516.16;;;24.29;51.36
66681;BME280;53575;51.366;12.350;2022-09-13T13:36:26;99524.16;;;24.53;50.31
66681;BME280;53575;51.366;12.350;2022-09-13T13:38:58;99506.91;;;25.38;48.78
66681;BME280;53575;51.366;12.350;2022-09-13T13:43:59;99506.13;;;25.81;46.97
66681;BME280;53575;51.366;12.350;2022-09-13T13:46:30;99500.88;;;25.68;47.08
66681;BME280;53575;51.366;12.350;2022-09-13T13:57:38;99502.06;;;27.02;43.98
66681;BME280;53575;51.366;12.350;2022-09-13T14:00:22;99501.28;;;27.61;43.75
66681;BME280;53575;51.366;12.350;2022-09-13T14:05:25;99488.38;;;28.15;41.55
66681;BME280;53575;51.366;12.350;2022-09-13T14:08:14;99490.06;;;28.26;40.52
66681;BME280;53575;51.366;12.350;2022-09-13T14:16:34;99495.25;;;25.71;46.50
66681;BME280;53575;51.366;12.350;2022-09-13T14:22:11;99490.09;;;24.91;49.53
66681;BME280;53575;51.366;12.350;2022-09-13T14:24:43;99482.22;;;24.89;50.02
66681;BME280;53575;51.366;12.350;2022-09-13T14:27:28;99486.06;;;24.63;50.22
66681;BME280;53575;51.366;12.350;2022-09-13T14:29:59;99481.41;;;24.53;50.96
66681;BME280;53575;51.366;12.350;2022-09-13T14:32:29;99472.53;;;24.42;50.80
66681;BME280;53575;51.366;12.350;2022-09-13T14:35:00;99486.19;;;24.26;51.99
66681;BME280;53575;51.366;12.350;2022-09-13T14:37:34;99481.41;;;24.18;51.38
66681;BME280;53575;51.366;12.350;2022-09-13T14:42:44;99480.25;;;23.98;52.32
66681;BME280;53575;51.366;12.350;2022-09-13T14:45:15;99471.22;;;23.88;53.00
66681;BME280;53575;51.366;12.350;2022-09-13T14:48:01;99475.03;;;23.73;53.11
66681;BME280;53575;51.366;12.350;2022-09-13T14:50:45;99472.13;;;23.52;54.02
66681;BME280;53575;51.366;12.350;2022-09-13T14:53:20;99471.63;;;23.47;54.47
66681;BME280;53575;51.366;12.350;2022-09-13T14:55:59;99470.66;;;23.35;54.71
66681;BME280;53575;51.366;12.350;2022-09-13T14:58:32;99473.66;;;23.30;55.02
66681;BME280;53575;51.366;12.350;2022-09-13T15:01:05;99465.50;;;23.21;55.46
66681;BME280;53575;51.366;12.350;2022-09-13T15:03:31;99462.53;;;23.13;55.76
66681;BME280;53575;51.366;12.350;2022-09-13T15:05:59;99465.75;;;23.05;56.78
66681;BME280;53575;51.366;12.350;2022-09-13T15:11:03;99468.31;;;22.94;56.82
66681;BME280;53575;51.366;12.350;2022-09-13T15:13:29;99460.41;;;22.92;56.54
66681;BME280;53575;51.366;12.350;2022-09-13T15:15:55;99470.75;;;22.97;56.77
66681;BME280;53575;51.366;12.350;2022-09-13T15:18:24;99466.13;;;23.11;56.46
66681;BME280;53575;51.366;12.350;2022-09-13T15:21:15;99477.56;;;23.14;56.37
66681;BME280;53575;51.366;12.350;2022-09-13T15:23:48;99476.06;;;22.97;58.17
66681;BME280;53575;51.366;12.350;2022-09-13T15:26:22;99466.91;;;23.01;58.82
66681;BME280;53575;51.366;12.350;2022-09-13T15:28:51;99465.53;;;22.95;59.23
66681;BME280;53575;51.366;12.350;2022-09-13T15:31:31;99459.03;;;22.99;59.41
66681;BME280;53575;51.366;12.350;2022-09-13T15:36:41;99475.56;;;22.92;60.39
66681;BME280;53575;51.366;12.350;2022-09-13T15:41:37;99483.22;;;22.71;61.75
66681;BME280;53575;51.366;12.350;2022-09-13T15:44:07;99482.47;;;22.56;61.80
66681;BME280;53575;51.366;12.350;2022-09-13T15:46:45;99473.81;;;22.39;62.51
66681;BME280;53575;51.366;12.350;2022-09-13T15:49:15;99488.84;;;22.41;62.24
66681;BME280;53575;51.366;12.350;2022-09-13T15:51:42;99492.22;;;22.30;62.75
66681;BME280;53575;51.366;12.350;2022-09-13T15:54:16;99487.56;;;22.06;63.80
66681;BME280;53575;51.366;12.350;2022-09-13T15:56:43;99491.59;;;21.99;64.81
66681;BME280;53575;51.366;12.350;2022-09-13T15:59:13;99489.53;;;21.90;65.00
66681;BME280;53575;51.366;12.350;2022-09-13T16:01:42;99489.53;;;21.90;65.76
66681;BME280;53575;51.366;12.350;2022-09-13T16:04:08;99478.66;;;21.80;65.96